Time;durP1;ratioP1;P1;durP2;ratioP2;P2;SDS_P1;SDS_P2;PMS_P1;PMS_P2;Temp;Humidity;BMP_temperature;BMP_pressure;BME280_temperature;BME280_humidity;BME280_pressure;Samples;Min_cycle;Max_cycle;Signal;HPM_P1;HPM_P2
2022/07/02 00:00:06;;;;;;;1.17;0.40;;;14.60;99.90;;;;;;5035268;28;20481;-76
2022/07/02 00:02:36;;;;;;;0.40;0.40;;;14.60;99.90;;;;;;5033581;28;20029;-75
2022/07/02 00:05:05;;;;;;;0.45;0.45;;;14.60;99.90;;;;;;5033899;28;20029;-76
2022/07/02 00:07:31;;;;;;;0.40;0.40;;;14.60;99.90;;;;;;5034326;28;20032;-76
2022/07/02 00:09:58;;;;;;;0.60;0.50;;;14.60;99.90;;;;;;5034645;28;20029;-76
2022/07/02 00:12:26;;;;;;;0.80;0.40;;;14.70;99.90;;;;;;5034576;28;20033;-76
2022/07/02 00:14:56;;;;;;;1.75;0.52;;;14.60;99.90;;;;;;5034725;28;20041;-76
2022/07/02 00:17:22;;;;;;;0.50;0.50;;;14.60;99.90;;;;;;5033310;28;20096;-76
2022/07/02 00:19:52;;;;;;;0.57;0.57;;;14.70;99.90;;;;;;5033030;28;20036;-75
2022/07/02 00:22:19;;;;;;;0.70;0.70;;;14.70;99.90;;;;;;5032883;28;20025;-76
2022/07/02 00:24:45;;;;;;;0.63;0.60;;;14.70;99.90;;;;;;5033080;28;20466;-76
2022/07/02 00:27:13;;;;;;;0.52;0.52;;;14.60;99.90;;;;;;5033449;28;20025;-75
2022/07/02 00:29:57;;;;;;;0.60;0.60;;;14.60;99.90;;;;;;5033624;28;20393;-76
2022/07/02 00:32:26;;;;;;;0.70;0.70;;;14.60;99.90;;;;;;5034242;28;20025;-76
2022/07/02 00:34:52;;;;;;;;;;;14.60;99.90;;;;;;5034249;28;20492;-75
2022/07/02 00:37:19;;;;;;;0.70;0.68;;;14.60;99.90;;;;;;5033124;28;19905;-76
2022/07/02 00:39:45;;;;;;;0.68;0.68;;;14.60;99.90;;;;;;5032781;28;20025;-76
2022/07/02 00:42:11;;;;;;;10.32;1.70;;;14.60;99.90;;;;;;5032832;28;20033;-76
2022/07/02 00:44:37;;;;;;;2.83;0.82;;;14.60;99.90;;;;;;5032745;28;20028;-76
2022/07/02 00:47:08;;;;;;;0.60;0.50;;;14.50;99.90;;;;;;5032650;28;20048;-76
2022/07/02 00:49:35;;;;;;;0.65;0.60;;;14.60;99.90;;;;;;5032436;28;20087;-76
2022/07/02 00:52:03;;;;;;;0.95;0.68;;;14.60;99.90;;;;;;5032688;28;20033;-76
2022/07/02 00:54:28;;;;;;;0.35;0.35;;;14.60;99.90;;;;;;5032574;28;20148;-76
2022/07/02 00:56:54;;;;;;;1.48;0.30;;;14.60;99.90;;;;;;5032418;28;20068;-76
2022/07/02 00:59:22;;;;;;;0.65;0.60;;;14.50;99.90;;;;;;5032980;28;20116;-76
2022/07/02 01:01:48;;;;;;;0.30;0.30;;;14.50;99.90;;;;;;5032441;28;20052;-76
2022/07/02 01:04:15;;;;;;;1.38;0.60;;;14.50;99.90;;;;;;5032429;28;20033;-76
2022/07/02 01:06:43;;;;;;;0.45;0.43;;;14.40;99.90;;;;;;5033625;28;20028;-76
2022/07/02 01:11:59;;;;;;;1.95;0.40;;;14.30;99.90;;;;;;5033597;28;20044;-76
2022/07/02 01:14:26;;;;;;;0.95;0.38;;;14.30;99.90;;;;;;5032301;28;20473;-76
2022/07/02 01:16:52;;;;;;;0.30;0.30;;;14.30;99.90;;;;;;5032279;28;20479;-76
2022/07/02 01:19:20;;;;;;;0.47;0.30;;;14.30;99.90;;;;;;5032238;28;20128;-76
2022/07/02 01:22:04;;;;;;;0.38;0.38;;;14.30;99.90;;;;;;5033792;28;20029;-76
2022/07/02 01:24:30;;;;;;;0.30;0.30;;;14.40;99.90;;;;;;5032374;28;20492;-77
2022/07/02 01:26:56;;;;;;;1.27;0.22;;;14.40;99.90;;;;;;5033352;28;20057;-77
2022/07/02 01:29:21;;;;;;;0.75;0.65;;;14.40;99.90;;;;;;5033470;28;20051;-77
2022/07/02 01:31:47;;;;;;;0.95;0.30;;;14.30;99.90;;;;;;5033037;28;20561;-76
2022/07/02 01:34:12;;;;;;;1.80;0.30;;;14.30;99.90;;;;;;5033681;28;20036;-76
2022/07/02 01:36:38;;;;;;;0.25;0.20;;;14.30;99.90;;;;;;5037280;28;20033;-76
2022/07/02 01:39:04;;;;;;;2.25;0.40;;;14.30;99.90;;;;;;5036223;28;20029;-77
2022/07/02 01:41:38;;;;;;;0.35;0.35;;;14.30;99.90;;;;;;5037731;28;20087;-76
2022/07/02 01:44:05;;;;;;;0.50;0.50;;;14.40;99.90;;;;;;5035951;28;20021;-76
2022/07/02 01:46:31;;;;;;;0.88;0.60;;;14.40;99.90;;;;;;5035921;28;20021;-77
2022/07/02 01:48:56;;;;;;;0.70;0.70;;;14.40;99.90;;;;;;5037162;28;20037;-76
2022/07/02 01:51:22;;;;;;;3.22;0.80;;;14.40;99.90;;;;;;5037523;28;20086;-76
2022/07/02 01:53:47;;;;;;;0.70;0.60;;;14.40;99.90;;;;;;5035714;28;20040;-77
2022/07/02 01:56:13;;;;;;;1.95;1.13;;;14.40;99.90;;;;;;5035756;28;20413;-76
2022/07/02 01:58:39;;;;;;;1.77;0.77;;;14.40;99.90;;;;;;5037104;28;20049;-77
2022/07/02 02:01:04;;;;;;;0.80;0.80;;;14.30;99.90;;;;;;5037259;28;20481;-76
2022/07/02 02:03:30;;;;;;;2.20;1.10;;;14.30;99.90;;;;;;5035209;28;20436;-76
2022/07/02 02:05:56;;;;;;;0.85;0.85;;;14.20;99.90;;;;;;5036971;28;20025;-77
2022/07/02 02:08:21;;;;;;;1.85;1.23;;;14.20;99.90;;;;;;5035400;28;20036;-77
2022/07/02 02:10:47;;;;;;;3.42;1.27;;;14.20;99.90;;;;;;5035375;28;20037;-77
2022/07/02 02:13:13;;;;;;;2.28;2.05;;;14.10;99.90;;;;;;5035295;28;20103;-77
2022/07/02 02:15:38;;;;;;;3.58;2.17;;;14.10;99.90;;;;;;5035280;28;20025;-77
2022/07/02 02:18:04;;;;;;;3.03;1.95;;;14.10;99.90;;;;;;5036209;28;20099;-77
2022/07/02 02:20:29;;;;;;;5.13;2.10;;;14.10;99.90;;;;;;5036556;28;20408;-77
2022/07/02 02:22:55;;;;;;;2.22;2.03;;;14.10;99.90;;;;;;5035119;28;20465;-77
2022/07/02 02:25:21;;;;;;;2.78;2.58;;;14.10;99.90;;;;;;5036378;28;20021;-77
2022/07/02 02:27:47;;;;;;;2.88;2.63;;;14.10;99.90;;;;;;5036456;28;20488;-77
2022/07/02 02:30:13;;;;;;;3.05;2.47;;;14.10;99.90;;;;;;5035020;28;20484;-77
2022/07/02 02:32:39;;;;;;;3.25;2.60;;;14.20;99.90;;;;;;5034874;28;20530;-77
2022/07/02 02:35:06;;;;;;;5.75;2.80;;;14.20;99.90;;;;;;5035178;28;20564;-77
2022/07/02 02:37:32;;;;;;;3.40;3.10;;;14.20;99.90;;;;;;5036162;28;20070;-77
2022/07/02 02:39:58;;;;;;;2.70;2.50;;;14.20;99.90;;;;;;5034801;28;20116;-77
2022/07/02 02:42:23;;;;;;;4.43;2.70;;;14.20;99.90;;;;;;5036041;28;20037;-77
2022/07/02 02:44:49;;;;;;;3.45;2.95;;;14.20;99.90;;;;;;5034732;28;20048;-76
2022/07/02 02:47:15;;;;;;;4.50;3.50;;;14.20;99.90;;;;;;5034957;28;20171;-77
2022/07/02 02:49:40;;;;;;;3.72;3.10;;;14.10;99.90;;;;;;5034785;28;20021;-76
2022/07/02 02:52:06;;;;;;;6.47;3.78;;;14.10;99.90;;;;;;5034659;28;20038;-76
2022/07/02 02:54:32;;;;;;;4.70;2.97;;;14.10;99.90;;;;;;5034599;28;20091;-77
2022/07/02 02:56:58;;;;;;;3.83;3.22;;;14.10;99.90;;;;;;5035842;28;20462;-77
2022/07/02 02:59:23;;;;;;;3.58;3.28;;;14.10;99.90;;;;;;5035918;28;20029;-77
2022/07/02 03:01:49;;;;;;;5.15;3.10;;;14.00;99.90;;;;;;5034393;28;20116;-76
2022/07/02 03:04:15;;;;;;;5.80;3.97;;;14.00;99.90;;;;;;5035642;28;20025;-76
2022/07/02 03:06:40;;;;;;;5.70;3.50;;;14.00;99.90;;;;;;5035594;28;20040;-77
2022/07/02 03:09:06;;;;;;;6.07;3.75;;;14.00;99.90;;;;;;5034223;28;20067;-77
2022/07/02 03:11:32;;;;;;;5.15;3.88;;;14.00;99.90;;;;;;5035435;28;20469;-77
2022/07/02 03:13:58;;;;;;;4.70;3.30;;;14.00;99.90;;;;;;5034510;28;20367;-77
2022/07/02 03:16:24;;;;;;;3.38;3.08;;;14.00;99.90;;;;;;5034320;28;20144;-77
2022/07/02 03:18:50;;;;;;;4.47;3.75;;;13.90;99.90;;;;;;5034234;28;20382;-77
2022/07/02 03:21:16;;;;;;;6.18;3.75;;;14.00;99.90;;;;;;5033990;28;20477;-77
2022/07/02 03:23:41;;;;;;;3.25;2.95;;;13.90;99.90;;;;;;5033632;28;20041;-76
2022/07/02 03:26:07;;;;;;;3.85;3.38;;;13.90;99.90;;;;;;5035263;28;20025;-77
2022/07/02 03:28:33;;;;;;;5.60;3.00;;;13.90;99.90;;;;;;5033904;28;20025;-77
2022/07/02 03:30:59;;;;;;;5.70;2.78;;;13.90;99.90;;;;;;5035243;28;20032;-77
2022/07/02 03:33:25;;;;;;;3.60;3.30;;;13.90;99.90;;;;;;5033831;28;20040;-77
2022/07/02 03:35:50;;;;;;;6.07;3.28;;;13.90;99.90;;;;;;5033807;28;20152;-77
2022/07/02 03:38:16;;;;;;;5.45;3.33;;;14.00;99.90;;;;;;5035283;28;20064;-77
2022/07/02 03:40:42;;;;;;;4.53;3.00;;;14.00;99.90;;;;;;5035001;28;20457;-77
2022/07/02 03:43:07;;;;;;;4.13;2.67;;;14.00;99.90;;;;;;5034954;28;20029;-77
2022/07/02 03:45:33;;;;;;;3.42;3.13;;;14.10;99.90;;;;;;5034924;28;20021;-77
2022/07/02 03:47:59;;;;;;;8.13;3.50;;;14.10;99.90;;;;;;5034496;28;20036;-77
2022/07/02 03:50:24;;;;;;;6.13;3.35;;;14.10;99.90;;;;;;5033471;28;20036;-77
2022/07/02 03:52:50;;;;;;;3.67;3.38;;;14.10;99.90;;;;;;5034633;28;20068;-77
2022/07/02 03:55:16;;;;;;;4.28;3.72;;;14.10;99.90;;;;;;5034658;28;20056;-77
2022/07/02 03:57:41;;;;;;;4.57;3.25;;;14.10;99.90;;;;;;5033977;28;20474;-77
2022/07/02 04:00:08;;;;;;;5.07;3.30;;;14.10;99.90;;;;;;5034532;28;20021;-77
2022/07/02 04:02:34;;;;;;;4.70;3.63;;;14.10;99.90;;;;;;5033286;28;20040;-77
2022/07/02 04:04:59;;;;;;;4.13;3.72;;;14.20;99.90;;;;;;5033244;28;20025;-77
2022/07/02 04:07:25;;;;;;;4.38;3.38;;;14.20;99.90;;;;;;5033185;28;20033;-78
2022/07/02 04:09:51;;;;;;;4.15;3.60;;;14.20;99.90;;;;;;5034647;28;20025;-68
2022/07/02 04:12:16;;;;;;;3.90;2.70;;;14.20;99.90;;;;;;5034210;28;20033;-68
2022/07/02 04:14:42;;;;;;;5.97;3.20;;;14.40;99.90;;;;;;5033002;28;20115;-68
2022/07/02 04:17:08;;;;;;;3.30;2.92;;;14.50;99.90;;;;;;5034457;28;20018;-68
2022/07/02 04:19:33;;;;;;;3.45;2.92;;;14.60;99.90;;;;;;5034442;28;20030;-67
2022/07/02 04:22:01;;;;;;;5.97;2.80;;;14.70;99.90;;;;;;5034213;28;20083;-68
2022/07/02 04:24:31;;;;;;;3.60;3.03;;;14.80;99.90;;;;;;5034160;28;20029;-68
2022/07/02 04:26:57;;;;;;;3.08;2.75;;;14.80;99.90;;;;;;5034293;28;20037;-68
2022/07/02 04:29:23;;;;;;;4.63;2.47;;;14.90;99.90;;;;;;5034045;28;20026;-68
2022/07/02 04:31:48;;;;;;;2.80;2.60;;;14.90;99.90;;;;;;5033908;28;20033;-68
2022/07/02 04:34:14;;;;;;;2.80;2.60;;;14.90;99.90;;;;;;5034019;28;20532;-68
2022/07/02 04:36:40;;;;;;;2.90;2.70;;;14.90;99.90;;;;;;5033949;28;20128;-68
2022/07/02 04:39:06;;;;;;;2.78;2.50;;;15.00;99.90;;;;;;5032774;28;20036;-68
2022/07/02 04:41:32;;;;;;;3.08;2.78;;;15.00;99.90;;;;;;5033634;28;20462;-64
2022/07/02 04:43:59;;;;;;;2.40;2.28;;;15.10;99.90;;;;;;5034165;28;20370;-76
2022/07/02 04:46:25;;;;;;;3.05;2.58;;;15.10;99.90;;;;;;5032716;28;20029;-76
2022/07/02 04:48:51;;;;;;;2.35;2.13;;;15.10;99.90;;;;;;5033804;28;20079;-76
2022/07/02 04:51:17;;;;;;;2.28;2.00;;;15.20;99.90;;;;;;5032473;28;20026;-76
2022/07/02 04:53:44;;;;;;;6.07;2.28;;;15.20;99.90;;;;;;5033733;28;20029;-76
2022/07/02 04:56:09;;;;;;;3.05;2.75;;;15.20;99.90;;;;;;5032995;28;20100;-76
2022/07/02 04:58:35;;;;;;;2.45;2.15;;;15.30;99.90;;;;;;5034016;28;20057;-76
2022/07/02 05:01:01;;;;;;;2.58;2.38;;;15.30;99.90;;;;;;5033492;28;20466;-76
2022/07/02 05:03:27;;;;;;;5.50;2.30;;;15.30;99.90;;;;;;5033747;28;20030;-77
2022/07/02 05:05:52;;;;;;;4.95;2.20;;;15.40;99.90;;;;;;5033632;28;20037;-79
2022/07/02 05:08:26;;;;;;;3.45;1.95;;;15.50;99.90;;;;;;5033579;28;20029;-79
2022/07/02 05:10:52;;;;;;;2.97;1.88;;;15.50;99.90;;;;;;5035705;28;20036;-79
2022/07/02 05:13:18;;;;;;;2.00;1.90;;;15.50;99.90;;;;;;5037655;28;20083;-81
2022/07/02 05:15:45;;;;;;;2.03;1.75;;;15.50;99.90;;;;;;5038064;28;20462;-79
2022/07/02 05:18:11;;;;;;;2.03;1.60;;;15.60;99.90;;;;;;5036485;28;20033;-81
2022/07/02 05:20:37;;;;;;;1.65;1.55;;;15.60;99.90;;;;;;5036611;28;20025;-80
2022/07/02 05:23:02;;;;;;;2.13;2.03;;;15.60;99.90;;;;;;5036591;28;20120;-82
2022/07/02 05:25:28;;;;;;;2.05;1.63;;;15.70;99.90;;;;;;5036379;28;20482;-74
2022/07/02 05:27:54;;;;;;;1.98;1.67;;;15.80;99.90;;;;;;5037145;28;20029;-62
2022/07/02 05:30:19;;;;;;;3.13;1.48;;;15.90;99.90;;;;;;5037381;28;20025;-63
2022/07/02 05:32:45;;;;;;;3.85;1.30;;;16.10;99.90;;;;;;5037247;28;20033;-62
2022/07/02 05:35:11;;;;;;;1.85;1.20;;;16.20;99.90;;;;;;5037647;28;20037;-61
2022/07/02 05:37:36;;;;;;;2.58;1.30;;;16.30;99.90;;;;;;5037101;28;20030;-62
2022/07/02 05:40:03;;;;;;;1.58;1.08;;;16.40;99.90;;;;;;5037222;28;20037;-62
2022/07/02 05:42:28;;;;;;;1.20;1.10;;;16.50;99.90;;;;;;5037080;28;20438;-62
2022/07/02 05:44:54;;;;;;;2.35;1.10;;;16.60;99.90;;;;;;5036841;28;20057;-62
2022/07/02 05:47:19;;;;;;;0.95;0.85;;;16.70;99.90;;;;;;5036719;28;20021;-62
2022/07/02 05:49:45;;;;;;;1.55;1.20;;;16.80;99.90;;;;;;5036955;28;20104;-62
2022/07/02 05:52:11;;;;;;;1.88;1.15;;;16.90;99.90;;;;;;5036519;28;20030;-62
2022/07/02 05:54:37;;;;;;;1.38;1.08;;;17.00;99.90;;;;;;5036928;28;20033;-63
2022/07/02 05:57:02;;;;;;;6.03;1.40;;;17.00;99.90;;;;;;5036871;28;20046;-62
2022/07/02 05:59:28;;;;;;;2.72;1.75;;;16.90;99.90;;;;;;5036729;28;20374;-62
2022/07/02 06:01:54;;;;;;;1.98;1.23;;;17.10;99.90;;;;;;5036371;28;20090;-62
2022/07/02 06:04:19;;;;;;;1.52;1.25;;;17.20;99.90;;;;;;5036674;28;20033;-62
2022/07/02 06:09:29;;;;;;;2.05;1.27;;;17.20;99.90;;;;;;5036318;28;20500;-62
2022/07/02 06:11:54;;;;;;;5.38;1.35;;;17.40;99.90;;;;;;5036314;28;20061;-62
2022/07/02 06:14:20;;;;;;;1.00;1.00;;;17.50;99.90;;;;;;5036530;28;20033;-62
2022/07/02 06:16:45;;;;;;;1.67;1.00;;;17.60;99.90;;;;;;5035291;28;20041;-68
2022/07/02 06:19:11;;;;;;;1.50;1.40;;;17.70;99.90;;;;;;5036435;28;20040;-68
2022/07/02 06:21:37;;;;;;;0.80;0.80;;;17.90;99.90;;;;;;5036045;28;20112;-69
2022/07/02 06:24:03;;;;;;;0.80;0.80;;;18.30;99.90;;;;;;5036358;28;20029;-68
2022/07/02 06:26:28;;;;;;;2.60;0.90;;;18.70;99.90;;;;;;5036331;28;20032;-68
2022/07/02 06:28:54;;;;;;;2.33;0.95;;;19.10;99.90;;;;;;5036261;28;20029;-68
2022/07/02 06:31:19;;;;;;;2.50;0.90;;;19.30;99.90;;;;;;5036119;28;20022;-68
2022/07/02 06:33:45;;;;;;;0.57;0.57;;;19.80;99.90;;;;;;5036137;28;20030;-69
2022/07/02 06:36:14;;;;;;;1.15;0.50;;;20.30;99.90;;;;;;5036405;28;20033;-67
2022/07/02 06:38:40;;;;;;;;;;;20.60;99.90;;;;;;5068487;28;20501;-67
2022/07/02 06:42:18;;;;;;;0.77;0.60;;;20.90;99.90;;;;;;5035906;28;19940;-68
2022/07/02 06:44:01;;;;;;;0.98;0.90;;;20.70;99.60;;;;;;5035866;28;20112;-67
2022/07/02 06:46:27;;;;;;;0.90;0.90;;;20.30;99.90;;;;;;5036100;28;20117;-67
2022/07/02 06:48:52;;;;;;;1.05;0.80;;;20.30;99.90;;;;;;5034622;28;20029;-66
2022/07/02 06:51:18;;;;;;;3.28;0.77;;;20.30;99.90;;;;;;5035822;28;20032;-67
2022/07/02 06:53:44;;;;;;;0.68;0.68;;;20.40;99.90;;;;;;5035698;28;20032;-66
2022/07/02 06:56:09;;;;;;;2.08;0.73;;;20.50;99.90;;;;;;5036139;28;20112;-67
2022/07/02 06:58:35;;;;;;;2.67;0.70;;;20.50;99.90;;;;;;5035847;28;20440;-65
2022/07/02 07:01:00;;;;;;;0.80;0.80;;;20.60;99.90;;;;;;5035588;28;20037;-67
2022/07/02 07:03:26;;;;;;;2.17;1.00;;;20.30;99.90;;;;;;5035611;28;20513;-71
2022/07/02 07:05:52;;;;;;;1.27;0.75;;;20.10;99.90;;;;;;5035232;28;20028;-63
2022/07/02 07:08:18;;;;;;;0.70;0.70;;;20.30;99.90;;;;;;5035439;28;20052;-63
2022/07/02 07:10:44;;;;;;;3.08;0.80;;;20.30;99.90;;;;;;5035106;28;20037;-63
2022/07/02 07:13:09;;;;;;;0.80;0.80;;;20.70;99.90;;;;;;5035290;28;20040;-63
2022/07/02 07:15:35;;;;;;;0.93;0.50;;;21.10;98.70;;;;;;5035220;28;20037;-63
2022/07/02 07:18:01;;;;;;;0.65;0.45;;;21.10;98.20;;;;;;5035215;28;20028;-66
2022/07/02 07:20:29;;;;;;;1.35;0.60;;;21.30;98.40;;;;;;5035345;28;20053;-66
2022/07/02 07:22:56;;;;;;;0.77;0.77;;;21.70;96.70;;;;;;5035170;28;20025;-66
2022/07/02 07:25:22;;;;;;;0.70;0.65;;;21.00;97.10;;;;;;5035163;28;20037;-65
2022/07/02 07:27:48;;;;;;;0.65;0.30;;;20.60;97.80;;;;;;5035207;28;20025;-64
2022/07/02 07:30:14;;;;;;;0.60;0.60;;;20.70;98.20;;;;;;5035033;28;20095;-64
2022/07/02 07:32:41;;;;;;;1.67;0.47;;;20.90;98.20;;;;;;5033986;28;20021;-64
2022/07/02 07:35:07;;;;;;;1.65;0.40;;;21.30;97.90;;;;;;5035012;28;20034;-64
2022/07/02 07:37:33;;;;;;;0.40;0.40;;;21.90;95.60;;;;;;5034996;28;20152;-64
2022/07/02 07:39:58;;;;;;;0.47;0.40;;;22.10;94.40;;;;;;5034834;28;20060;-64
2022/07/02 07:42:25;;;;;;;0.52;0.52;;;22.00;94.00;;;;;;5035556;28;20041;-64
2022/07/02 07:44:51;;;;;;;1.13;0.60;;;22.20;93.90;;;;;;5034724;28;20374;-65
2022/07/02 07:47:16;;;;;;;0.40;0.30;;;22.20;93.00;;;;;;5035082;28;20036;-76
2022/07/02 07:49:42;;;;;;;0.50;0.50;;;22.20;93.80;;;;;;5033445;28;20037;-77
2022/07/02 07:52:08;;;;;;;1.40;0.77;;;22.00;93.00;;;;;;5034629;28;20034;-75
2022/07/02 07:54:33;;;;;;;0.90;0.40;;;22.00;93.40;;;;;;5034629;28;20023;-75
2022/07/02 07:56:59;;;;;;;0.63;0.50;;;22.10;92.50;;;;;;5034284;28;20056;-77
2022/07/02 07:59:25;;;;;;;0.38;0.30;;;22.40;92.30;;;;;;5034214;28;20025;-75
2022/07/02 08:01:50;;;;;;;1.17;0.50;;;22.70;91.20;;;;;;5034560;28;20032;-76
2022/07/02 08:04:16;;;;;;;0.98;0.50;;;22.60;91.10;;;;;;5034493;28;20447;-77
2022/07/02 08:06:42;;;;;;;0.45;0.45;;;22.40;90.70;;;;;;5034548;28;20025;-74
2022/07/02 08:09:08;;;;;;;0.40;0.40;;;22.60;89.80;;;;;;5034081;28;20035;-75
2022/07/02 08:11:33;;;;;;;0.32;0.32;;;22.60;91.00;;;;;;5033509;28;20025;-76
2022/07/02 08:13:59;;;;;;;0.40;0.40;;;23.10;89.80;;;;;;5034159;28;20041;-79
2022/07/02 08:16:25;;;;;;;0.85;0.30;;;23.20;86.90;;;;;;5034241;28;20022;-77
2022/07/02 08:18:50;;;;;;;1.10;0.40;;;23.60;84.10;;;;;;5034248;28;20473;-76
2022/07/02 08:21:16;;;;;;;0.60;0.40;;;24.10;82.90;;;;;;5032861;28;20381;-75
2022/07/02 08:23:41;;;;;;;0.80;0.40;;;24.20;80.20;;;;;;5033233;28;20173;-74
2022/07/02 08:26:07;;;;;;;0.35;0.35;;;23.90;80.20;;;;;;5034039;28;20033;-75
2022/07/02 08:28:33;;;;;;;0.30;0.30;;;23.80;80.10;;;;;;5033692;28;20033;-76
2022/07/02 08:30:59;;;;;;;1.35;0.30;;;23.40;80.40;;;;;;5033951;28;20079;-77
2022/07/02 08:33:25;;;;;;;0.40;0.40;;;23.20;80.20;;;;;;5032860;28;20044;-77
2022/07/02 08:35:50;;;;;;;1.23;0.20;;;23.00;82.50;;;;;;5032627;28;20140;-78
2022/07/02 08:38:16;;;;;;;0.60;0.50;;;22.60;82.50;;;;;;5032849;28;20037;-80
2022/07/02 08:40:44;;;;;;;0.63;0.30;;;22.00;84.80;;;;;;5033914;28;20040;-82
2022/07/02 08:43:12;;;;;;;1.05;0.50;;;21.80;86.10;;;;;;5032409;28;20029;-77
2022/07/02 08:45:39;;;;;;;0.30;0.30;;;21.70;87.70;;;;;;5032606;28;20493;-78
2022/07/02 08:48:07;;;;;;;0.30;0.30;;;21.80;85.60;;;;;;5033741;28;20033;-73
2022/07/02 08:50:34;;;;;;;0.60;0.47;;;22.70;85.60;;;;;;5033555;28;20021;-76
2022/07/02 08:53:00;;;;;;;1.35;0.32;;;23.30;82.60;;;;;;5033649;28;20033;-76
2022/07/02 08:55:27;;;;;;;1.52;0.30;;;23.30;80.20;;;;;;5032422;28;20489;-75
2022/07/02 08:57:52;;;;;;;1.02;0.40;;;23.60;80.90;;;;;;5033736;28;20088;-77
2022/07/02 09:00:21;;;;;;;1.08;0.40;;;24.40;77.20;;;;;;5033726;28;20430;-77
2022/07/02 09:02:50;;;;;;;0.30;0.30;;;25.50;75.30;;;;;;5032021;28;20034;-78
2022/07/02 09:05:16;;;;;;;;;;;26.20;71.30;;;;;;5034313;28;20469;-77
2022/07/02 09:07:44;;;;;;;0.22;0.17;;;25.80;69.70;;;;;;5033465;28;19909;-78
2022/07/02 09:10:11;;;;;;;1.07;0.30;;;25.50;68.40;;;;;;5032402;28;20036;-79
2022/07/02 09:12:38;;;;;;;0.60;0.30;;;24.40;69.80;;;;;;5033465;28;20628;-79
2022/07/02 09:15:04;;;;;;;0.52;0.30;;;24.80;71.80;;;;;;5032292;28;20030;-59
2022/07/02 09:17:31;;;;;;;2.65;0.30;;;25.30;71.10;;;;;;5033562;28;20032;-59
2022/07/02 09:19:57;;;;;;;1.33;0.30;;;26.00;67.50;;;;;;5033450;28;20040;-59
2022/07/02 09:22:32;;;;;;;3.40;0.20;;;25.90;66.70;;;;;;5033364;28;20030;-59
2022/07/02 09:25:12;;;;;;;1.73;0.40;;;26.20;66.10;;;;;;5032105;28;20029;-59
2022/07/02 09:27:39;;;;;;;0.55;0.30;;;25.90;64.40;;;;;;5033775;28;20105;-59
2022/07/02 09:30:06;;;;;;;0.77;0.30;;;25.30;66.80;;;;;;5032291;28;20029;-59
2022/07/02 09:32:43;;;;;;;0.20;0.20;;;25.00;65.80;;;;;;5033280;28;20079;-63
2022/07/02 09:35:20;;;;;;;0.30;0.30;;;24.40;66.80;;;;;;5033237;28;20104;-64
2022/07/02 09:37:50;;;;;;;1.15;0.30;;;24.00;68.70;;;;;;5032474;28;20029;-64
2022/07/02 09:40:17;;;;;;;1.60;0.20;;;23.80;70.00;;;;;;5033410;28;20031;-65
2022/07/02 09:42:47;;;;;;;0.38;0.30;;;24.30;68.10;;;;;;5033434;28;20044;-65
2022/07/02 09:45:14;;;;;;;0.88;0.30;;;25.10;67.50;;;;;;5033539;28;20026;-66
2022/07/02 09:47:48;;;;;;;2.00;0.30;;;25.70;65.00;;;;;;5032937;28;20493;-63
2022/07/02 09:50:15;;;;;;;1.70;0.57;;;26.10;63.60;;;;;;5033155;28;20485;-63
2022/07/02 09:52:52;;;;;;;2.08;0.32;;;27.00;61.50;;;;;;5033408;28;20112;-63
2022/07/02 09:55:26;;;;;;;0.38;0.30;;;27.00;58.80;;;;;;5033458;28;20365;-64
2022/07/02 09:57:57;;;;;;;0.20;0.20;;;26.70;60.70;;;;;;5036721;28;20049;-64
2022/07/02 10:00:24;;;;;;;0.85;0.20;;;27.10;60.30;;;;;;5036935;28;20026;-64
2022/07/02 10:02:51;;;;;;;1.42;0.45;;;27.20;58.00;;;;;;5036741;28;20114;-65
2022/07/02 10:05:26;;;;;;;1.27;0.35;;;26.10;60.70;;;;;;5036677;28;20022;-65
2022/07/02 10:07:53;;;;;;;0.75;0.20;;;26.70;59.60;;;;;;5036713;28;20053;-65
2022/07/02 10:10:27;;;;;;;0.63;0.28;;;27.10;59.30;;;;;;5036682;28;20051;-65
2022/07/02 10:12:55;;;;;;;2.63;0.30;;;27.80;56.80;;;;;;5036517;28;20030;-65
2022/07/02 10:15:23;;;;;;;3.33;0.45;;;27.40;57.20;;;;;;5036463;28;20026;-65
2022/07/02 10:17:54;;;;;;;0.95;0.40;;;28.00;56.70;;;;;;5036445;28;20036;-64
2022/07/02 10:20:21;;;;;;;0.52;0.20;;;27.90;56.00;;;;;;5036298;28;20497;-65
2022/07/02 10:22:47;;;;;;;0.70;0.40;;;28.20;54.90;;;;;;5035027;28;20029;-64
2022/07/02 10:25:13;;;;;;;1.55;0.20;;;28.10;53.60;;;;;;5036539;28;20369;-65
2022/07/02 10:27:40;;;;;;;0.55;0.40;;;27.80;54.40;;;;;;5035676;28;20080;-64
2022/07/02 10:30:07;;;;;;;0.28;0.20;;;27.70;53.20;;;;;;5036128;28;20025;-66
2022/07/02 10:33:02;;;;;;;1.75;0.30;;;28.10;53.20;;;;;;5036237;28;20029;-66
2022/07/02 10:35:29;;;;;;;2.75;0.20;;;28.40;53.10;;;;;;5036205;28;20037;-67
2022/07/02 10:38:00;;;;;;;1.05;0.38;;;28.70;52.80;;;;;;5036035;28;20036;-67
2022/07/02 10:40:27;;;;;;;0.95;0.30;;;28.20;51.80;;;;;;5036070;28;20469;-66
2022/07/02 10:42:59;;;;;;;1.17;0.20;;;27.80;52.30;;;;;;5036055;28;20038;-66
2022/07/02 10:45:25;;;;;;;0.85;0.32;;;27.50;52.10;;;;;;5036099;28;20021;-67
2022/07/02 10:48:05;;;;;;;0.40;0.35;;;27.50;53.00;;;;;;5034861;28;20029;-67
2022/07/02 10:50:39;;;;;;;1.40;0.30;;;27.50;53.00;;;;;;5035894;28;20021;-67
2022/07/02 10:53:11;;;;;;;0.82;0.30;;;27.40;53.50;;;;;;5035697;28;20037;-66
2022/07/02 10:55:38;;;;;;;0.40;0.30;;;27.60;53.80;;;;;;5035695;28;20037;-66
2022/07/02 10:58:07;;;;;;;0.25;0.25;;;27.80;53.00;;;;;;5035827;28;20045;-66
2022/07/02 11:00:35;;;;;;;0.57;0.50;;;28.20;53.10;;;;;;5035706;28;20053;-77
2022/07/02 11:03:18;;;;;;;;;;;28.50;52.10;;;;;;5036237;28;20025;-76
2022/07/02 11:06:20;;;;;;;0.75;0.30;;;28.60;51.00;;;;;;5035243;28;19959;-76
2022/07/02 11:09:05;;;;;;;1.30;0.40;;;28.60;51.20;;;;;;5035599;28;20029;-76
2022/07/02 11:11:36;;;;;;;0.30;0.30;;;28.50;50.30;;;;;;5035807;28;20028;-76
2022/07/02 11:14:17;;;;;;;1.23;0.40;;;28.10;50.50;;;;;;5034070;28;20060;-76
2022/07/02 11:16:51;;;;;;;1.05;0.40;;;28.10;50.90;;;;;;5035496;28;20033;-76
2022/07/02 11:19:25;;;;;;;0.63;0.40;;;28.30;50.30;;;;;;5035314;28;20078;-76
2022/07/02 11:21:57;;;;;;;0.45;0.45;;;28.80;50.40;;;;;;5034318;28;20029;-77
2022/07/02 11:24:25;;;;;;;1.88;0.50;;;29.70;48.70;;;;;;5034387;28;20029;-78
2022/07/02 11:26:51;;;;;;;0.57;0.40;;;30.10;48.20;;;;;;5033718;28;20026;-77
2022/07/02 11:29:17;;;;;;;1.63;0.40;;;30.40;47.00;;;;;;5035091;28;20026;-79
2022/07/02 11:31:48;;;;;;;1.85;0.40;;;30.20;47.10;;;;;;5035089;28;20044;-77
2022/07/02 11:34:16;;;;;;;0.25;0.25;;;30.20;47.60;;;;;;5033762;28;20048;-77
2022/07/02 11:36:42;;;;;;;0.40;0.30;;;29.90;47.10;;;;;;5033858;28;20488;-77
2022/07/02 11:39:13;;;;;;;1.55;0.50;;;29.70;46.40;;;;;;5034095;28;20439;-77
2022/07/02 11:41:40;;;;;;;1.85;0.40;;;29.60;46.80;;;;;;5034940;28;20033;-77
2022/07/02 11:44:15;;;;;;;0.43;0.43;;;29.50;47.50;;;;;;5034536;28;20111;-77
2022/07/02 11:46:42;;;;;;;4.10;0.40;;;30.10;46.90;;;;;;5033457;28;20515;-77
2022/07/02 11:49:16;;;;;;;1.60;0.30;;;30.40;47.90;;;;;;5034804;28;20025;-77
2022/07/02 11:51:44;;;;;;;0.55;0.50;;;31.30;47.30;;;;;;5034662;28;20476;-77
2022/07/02 11:54:10;;;;;;;2.22;0.60;;;32.10;45.10;;;;;;5034644;28;20041;-79
2022/07/02 11:56:40;;;;;;;1.17;0.40;;;32.70;43.20;;;;;;5032693;28;20037;-77
2022/07/02 11:59:10;;;;;;;0.75;0.47;;;33.10;42.30;;;;;;5034468;28;20545;-77
2022/07/02 12:01:37;;;;;;;2.78;0.40;;;32.70;42.90;;;;;;5034524;28;20460;-79
2022/07/02 12:04:07;;;;;;;0.45;0.32;;;32.30;43.40;;;;;;5033303;28;20057;-77
2022/07/02 12:06:38;;;;;;;0.32;0.32;;;32.30;42.10;;;;;;5034364;28;20052;-79
2022/07/02 12:09:09;;;;;;;0.45;0.30;;;32.00;42.60;;;;;;5034465;28;20030;-77
2022/07/02 12:11:37;;;;;;;1.05;0.52;;;31.20;43.00;;;;;;5034379;28;20104;-77
2022/07/02 12:14:05;;;;;;;0.57;0.55;;;31.20;44.00;;;;;;5034327;28;20069;-79
2022/07/02 12:16:32;;;;;;;0.43;0.43;;;32.00;42.90;;;;;;5034224;28;20121;-77
2022/07/02 12:19:12;;;;;;;0.57;0.43;;;32.50;41.70;;;;;;5034243;28;20446;-77
2022/07/02 12:21:43;;;;;;;0.28;0.20;;;31.40;42.20;;;;;;5034313;28;20029;-77
2022/07/02 12:24:22;;;;;;;0.63;0.55;;;31.10;43.00;;;;;;5034294;28;20053;-78
2022/07/02 12:27:06;;;;;;;1.25;0.32;;;30.80;43.70;;;;;;5034569;28;20018;-78
2022/07/02 12:29:58;;;;;;;1.35;0.45;;;31.30;43.20;;;;;;5034761;28;20025;-77
2022/07/02 12:32:32;;;;;;;0.40;0.40;;;31.00;43.20;;;;;;5034193;28;20116;-77
2022/07/02 12:35:10;;;;;;;0.40;0.40;;;30.70;44.00;;;;;;5034083;28;20058;-77
2022/07/02 12:37:37;;;;;;;0.32;0.30;;;31.40;42.10;;;;;;5032956;28;20420;-77
2022/07/02 12:40:17;;;;;;;0.47;0.40;;;31.90;41.10;;;;;;5033650;28;20389;-77
2022/07/02 12:42:53;;;;;;;0.65;0.38;;;32.30;41.10;;;;;;5033976;28;20150;-77
2022/07/02 12:45:34;;;;;;;0.22;0.22;;;32.50;40.40;;;;;;5033847;28;20022;-77
2022/07/02 12:48:10;;;;;;;0.40;0.40;;;31.90;40.80;;;;;;5033061;28;20025;-77
2022/07/02 12:50:39;;;;;;;0.55;0.30;;;32.50;40.80;;;;;;5033784;28;20106;-76
2022/07/02 12:53:08;;;;;;;1.48;0.47;;;32.80;40.20;;;;;;5033555;28;20385;-80
2022/07/02 12:55:39;;;;;;;1.08;0.43;;;33.10;40.10;;;;;;5032497;28;20465;-78